createdAt,value
2019-02-11T00:03:31.891Z,6.23
2019-02-11T00:08:39.166Z,6.70
2019-02-11T00:13:50.225Z,6.80
2019-02-11T00:18:59.790Z,4.10
2019-02-11T00:24:11.098Z,4.27
2019-02-11T00:29:18.973Z,4.43
2019-02-11T00:34:25.449Z,4.43
2019-02-11T00:39:34.222Z,3.93
2019-02-11T00:44:43.894Z,2.83
2019-02-11T00:49:53.022Z,3.93
2019-02-11T00:54:59.915Z,3.00
2019-02-11T01:00:08.842Z,2.73
2019-02-11T01:05:14.967Z,2.03
2019-02-11T01:10:22.765Z,1.87
2019-02-11T01:15:30.385Z,1.87
2019-02-11T01:20:37.357Z,1.70
2019-02-11T01:25:46.099Z,2.03
2019-02-11T01:30:54.146Z,2.23
2019-02-11T01:36:02.550Z,1.60
2019-02-11T01:41:09.480Z,2.00
2019-02-11T01:46:16.939Z,2.67
2019-02-11T01:51:24.670Z,1.80
2019-02-11T01:56:32.694Z,2.93
2019-02-11T02:01:43.026Z,2.07
2019-02-11T02:06:49.399Z,1.33
2019-02-11T02:11:56.494Z,1.20
2019-02-11T02:17:06.423Z,1.20
2019-02-11T02:22:15.055Z,0.70
2019-02-11T02:27:22.696Z,1.30
2019-02-11T02:32:30.494Z,1.03
2019-02-11T02:37:38.488Z,0.90
2019-02-11T02:42:44.703Z,1.30
2019-02-11T02:47:52.673Z,1.20
2019-02-11T02:52:59.945Z,1.00
2019-02-11T02:58:06.685Z,1.23
2019-02-11T03:03:14.635Z,1.13
2019-02-11T03:08:22.046Z,1.30
2019-02-11T03:13:28.148Z,1.30
2019-02-11T03:18:34.638Z,1.10
2019-02-11T03:23:42.267Z,1.57
2019-02-11T03:28:52.684Z,1.20
2019-02-11T03:33:59.116Z,1.73
2019-02-11T03:39:09.643Z,1.27
2019-02-11T03:44:19.242Z,1.93
2019-02-11T03:49:27.054Z,1.50
2019-02-11T03:54:34.867Z,1.63
2019-02-11T03:59:42.681Z,1.33
2019-02-11T04:04:53.941Z,1.67
2019-02-11T04:10:01.433Z,1.37
2019-02-11T04:15:10.163Z,1.60
2019-02-11T04:20:18.234Z,1.43
2019-02-11T04:25:27.051Z,2.13
2019-02-11T04:30:34.519Z,2.00
2019-02-11T04:35:42.458Z,2.10
2019-02-11T04:40:49.427Z,2.00
2019-02-11T04:45:57.561Z,2.00
2019-02-11T04:51:05.793Z,2.73
2019-02-11T04:56:13.818Z,2.97
2019-02-11T05:01:21.432Z,3.10
2019-02-11T05:06:29.221Z,2.60
2019-02-11T05:11:37.220Z,3.60
2019-02-11T05:16:44.028Z,3.63
2019-02-11T05:21:51.787Z,3.23
2019-02-11T05:26:58.745Z,2.40
2019-02-11T05:32:07.193Z,2.73
2019-02-11T05:37:15.751Z,2.73
2019-02-11T05:42:28.492Z,2.93
2019-02-11T05:47:37.254Z,3.03
2019-02-11T05:52:51.275Z,2.57
2019-02-11T05:57:59.940Z,2.67
2019-02-11T06:03:09.610Z,3.00
2019-02-11T06:08:16.836Z,3.67
2019-02-11T06:13:24.324Z,3.20
2019-02-11T06:18:31.948Z,3.60
2019-02-11T06:23:45.047Z,4.83
2019-02-11T06:28:54.651Z,3.67
2019-02-11T06:34:03.572Z,4.50
2019-02-11T06:39:11.241Z,5.73
2019-02-11T06:44:20.956Z,5.07
2019-02-11T06:49:28.591Z,4.40
2019-02-11T06:54:36.118Z,5.00
2019-02-11T06:59:44.139Z,3.67
2019-02-11T07:04:52.602Z,4.20
2019-02-11T07:10:00.013Z,4.27
2019-02-11T07:15:09.182Z,4.83
2019-02-11T07:20:17.411Z,3.97
2019-02-11T07:25:25.182Z,5.17
2019-02-11T07:30:32.932Z,4.20
2019-02-11T07:35:39.995Z,4.30
2019-02-11T07:40:48.150Z,5.13
2019-02-11T07:46:03.276Z,5.70
2019-02-11T07:51:11.013Z,6.83
2019-02-11T07:56:19.598Z,8.40
2019-02-11T08:01:27.090Z,9.10
2019-02-11T08:06:34.991Z,8.20
2019-02-11T08:11:41.471Z,9.37
2019-02-11T08:16:48.266Z,6.83
2019-02-11T08:21:55.106Z,6.63
2019-02-11T08:27:04.636Z,9.47
2019-02-11T08:32:13.163Z,9.27
2019-02-11T08:37:20.566Z,8.70
2019-02-11T08:42:30.827Z,9.87
2019-02-11T08:47:39.153Z,11.93
2019-02-11T08:52:46.853Z,10.03
2019-02-11T08:57:54.528Z,8.00
2019-02-11T09:03:02.458Z,5.37
2019-02-11T09:08:10.076Z,3.10
2019-02-11T09:13:17.124Z,3.10
2019-02-11T09:18:24.458Z,3.33
2019-02-11T09:23:33.525Z,4.20
2019-02-11T09:28:41.816Z,3.60
2019-02-11T09:33:47.982Z,3.83
2019-02-11T09:38:54.242Z,3.63
2019-02-11T09:44:02.308Z,3.97
2019-02-11T09:49:09.625Z,3.37
2019-02-11T09:54:18.260Z,3.60
2019-02-11T09:59:25.639Z,3.73
2019-02-11T10:04:33.441Z,3.73
2019-02-11T10:09:43.423Z,4.80
2019-02-11T10:14:50.588Z,3.67
2019-02-11T10:19:58.398Z,3.37
2019-02-11T10:25:06.867Z,4.20
2019-02-11T10:30:16.570Z,4.17
2019-02-11T10:35:26.277Z,3.53
2019-02-11T10:40:35.881Z,3.43
2019-02-11T10:45:46.310Z,4.57
2019-02-11T10:50:53.130Z,4.17
2019-02-11T10:56:00.090Z,3.13
2019-02-11T11:01:07.313Z,3.13
2019-02-11T11:06:15.231Z,4.00
2019-02-11T11:11:23.979Z,3.57
2019-02-11T11:16:31.727Z,3.83
2019-02-11T11:21:39.286Z,3.43
2019-02-11T11:26:47.686Z,2.83
2019-02-11T11:31:54.159Z,3.30
2019-02-11T11:37:02.711Z,3.40
2019-02-11T11:42:10.139Z,3.13
2019-02-11T11:47:16.754Z,4.00
2019-02-11T11:52:27.367Z,3.27
2019-02-11T11:57:33.682Z,3.63
2019-02-11T12:02:39.995Z,3.83
2019-02-11T12:07:46.307Z,3.67
2019-02-11T12:12:54.177Z,3.83
2019-02-11T12:18:00.806Z,3.80
2019-02-11T12:23:07.192Z,3.23
2019-02-11T12:28:13.906Z,3.57
2019-02-11T12:33:21.362Z,4.77
2019-02-11T12:38:28.699Z,2.93
2019-02-11T12:43:35.047Z,3.13
2019-02-11T12:48:43.548Z,3.63
2019-02-11T12:53:51.664Z,2.50
2019-02-11T12:58:58.659Z,2.17
2019-02-11T13:04:05.156Z,2.53
2019-02-11T13:09:15.229Z,3.10
2019-02-11T13:14:23.001Z,3.47
2019-02-11T13:19:30.419Z,3.07
2019-02-11T13:24:37.499Z,3.30
2019-02-11T13:29:45.052Z,2.90
2019-02-11T13:34:52.977Z,3.00
2019-02-11T13:39:59.509Z,2.80
2019-02-11T13:45:11.392Z,2.93
2019-02-11T13:50:22.209Z,2.97
2019-02-11T13:55:31.175Z,3.03
2019-02-11T14:00:38.958Z,2.73
2019-02-11T14:05:45.911Z,2.90
2019-02-11T14:10:54.531Z,3.33
2019-02-11T14:16:03.445Z,3.77
2019-02-11T14:21:11.817Z,2.50
2019-02-11T14:26:19.336Z,3.03
2019-02-11T14:31:30.535Z,2.77
2019-02-11T14:36:38.028Z,3.30
2019-02-11T14:41:47.462Z,2.53
2019-02-11T14:46:54.223Z,2.90
2019-02-11T14:52:01.871Z,2.93
2019-02-11T14:57:11.394Z,3.20
2019-02-11T15:02:18.272Z,3.30
2019-02-11T15:07:26.105Z,3.33
2019-02-11T15:12:34.358Z,2.90
2019-02-11T15:17:43.309Z,3.23
2019-02-11T15:22:50.647Z,2.37
2019-02-11T15:27:58.578Z,3.43
2019-02-11T15:33:06.293Z,3.17
2019-02-11T15:38:14.178Z,3.13
2019-02-11T15:43:22.546Z,2.30
2019-02-11T15:48:42.675Z,2.57
2019-02-11T15:53:46.360Z,2.47
2019-02-11T15:58:56.047Z,3.50
2019-02-11T16:04:04.085Z,2.10
2019-02-11T16:09:12.036Z,3.00
2019-02-11T16:14:19.248Z,3.87
2019-02-11T16:19:27.642Z,3.07
2019-02-11T16:24:34.792Z,3.07
2019-02-11T16:29:43.967Z,3.07
2019-02-11T16:34:52.411Z,3.17
2019-02-11T16:39:59.347Z,3.10
2019-02-11T16:45:05.630Z,3.50
2019-02-11T16:50:13.478Z,3.60
2019-02-11T16:55:21.423Z,3.80
2019-02-11T17:00:30.159Z,3.10
2019-02-11T17:05:37.295Z,9.43
2019-02-11T17:10:45.527Z,3.30
2019-02-11T17:15:53.359Z,2.80
2019-02-11T17:21:00.774Z,3.70
2019-02-11T17:26:08.835Z,3.67
2019-02-11T17:31:16.814Z,2.77
2019-02-11T17:36:25.261Z,3.33
2019-02-11T17:41:33.149Z,3.53
2019-02-11T17:46:40.082Z,3.67
2019-02-11T17:51:46.874Z,3.77
2019-02-11T17:56:55.104Z,4.67
2019-02-11T18:02:03.446Z,4.37
2019-02-11T18:07:11.394Z,5.27
2019-02-11T18:12:19.049Z,4.07
2019-02-11T18:17:26.295Z,4.40
2019-02-11T18:22:34.313Z,6.10
2019-02-11T18:27:42.201Z,6.57
2019-02-11T18:32:49.679Z,6.37
2019-02-11T18:37:56.394Z,6.33
2019-02-11T18:43:04.021Z,7.17
2019-02-11T18:48:12.731Z,6.57
2019-02-11T18:53:21.200Z,8.00
2019-02-11T18:58:28.803Z,6.97
2019-02-11T19:03:37.169Z,9.27
2019-02-11T19:08:46.609Z,10.37
2019-02-11T19:13:54.399Z,7.87
2019-02-11T19:19:02.740Z,10.87
2019-02-11T19:24:11.726Z,9.23
2019-02-11T19:29:18.282Z,12.00
2019-02-11T19:34:25.191Z,10.00
2019-02-11T19:39:33.231Z,8.10
2019-02-11T19:44:39.548Z,10.47
2019-02-11T19:49:51.744Z,17.63
2019-02-11T19:54:54.262Z,13.40
2019-02-11T20:00:10.130Z,9.87
2019-02-11T20:05:17.119Z,10.70
2019-02-11T20:10:24.575Z,9.77
2019-02-11T20:15:32.815Z,8.97
2019-02-11T20:20:39.677Z,8.93
2019-02-11T20:25:46.104Z,8.83
2019-02-11T20:30:53.344Z,8.77
2019-02-11T20:36:01.788Z,11.77
2019-02-11T20:41:09.171Z,9.53
2019-02-11T20:46:15.581Z,8.90
2019-02-11T20:51:23.343Z,14.43
2019-02-11T20:56:33.031Z,12.70
2019-02-11T21:01:41.250Z,8.90
2019-02-11T21:06:50.003Z,8.23
2019-02-11T21:11:57.110Z,8.80
2019-02-11T21:17:05.048Z,7.83
2019-02-11T21:22:11.536Z,13.97
2019-02-11T21:27:19.154Z,9.90
2019-02-11T21:32:27.486Z,8.73
2019-02-11T21:37:33.918Z,6.70
2019-02-11T21:42:41.823Z,7.20
2019-02-11T21:47:48.755Z,6.47
2019-02-11T21:52:54.939Z,7.47
2019-02-11T21:58:05.013Z,6.80
2019-02-11T22:03:14.602Z,6.07
2019-02-11T22:08:22.836Z,6.43
2019-02-11T22:13:30.207Z,6.70
2019-02-11T22:18:37.098Z,5.97
2019-02-11T22:23:44.234Z,5.77
2019-02-11T22:28:52.015Z,6.40
2019-02-11T22:33:59.662Z,6.10
2019-02-11T22:39:07.502Z,5.97
2019-02-11T22:44:15.331Z,4.90
2019-02-11T22:49:23.078Z,5.10
2019-02-11T22:54:30.878Z,5.13
2019-02-11T22:59:38.516Z,4.97
2019-02-11T23:04:48.256Z,4.57
2019-02-11T23:09:55.596Z,5.47
2019-02-11T23:15:03.325Z,4.90
2019-02-11T23:20:11.280Z,5.03
2019-02-11T23:25:19.036Z,4.87
2019-02-11T23:30:26.473Z,4.93
2019-02-11T23:35:34.545Z,5.20
2019-02-11T23:40:41.614Z,5.00
2019-02-11T23:45:48.316Z,5.70
2019-02-11T23:51:00.480Z,4.53
2019-02-11T23:56:06.475Z,4.90
